Westrac — WTH4325 — position and weather

sailwx.info

Track history (hours):
 
Tides and Currents Weather Stations Pressure Air Temp Water Temp Dewpoint Dewpoint Depression Visibility Wind Speed Wind Dir Waves Ship Positions

Westrac

Owner: WESTERN TOWBOAT CO, SEATTLE, WA. More information available from US FCC via Universal Licensing System and Coast Guard Vessel Documentation Center.

Last reported at 2015-Mar-26 22:06 UTC. Time now 2015-Mar-26 22:36 UTC.
Position N 47°34' W 122°21'.

Length 23 m; draft 5 m.

Type: Tug. MMSI: 366993010.

Date/timePositionNaut miles runAvg speedWind from/ knotsBaromVisibWave heightAir tempDewpointWater temp
2015-Mar-26 22:06N 47°34' W 122°21'0 2.5
2015-Mar-26 22:04N 47°34' W 122°21'1 1.6
2015-Mar-26 21:33N 47°33' W 122°21'0 0.0
2015-Mar-26 21:29N 47°33' W 122°21'1 0.6
2015-Mar-26 20:33N 47°34' W 122°21'0 5.2
2015-Mar-26 20:29N 47°34' W 122°21'1 0.6
2015-Mar-26 19:33N 47°35' W 122°21'1 4.6
2015-Mar-26 19:22N 47°34' W 122°21'1 0.7
2015-Mar-26 18:33N 47°33' W 122°21'0 0.4
2015-Mar-26 17:39N 47°33' W 122°20'1 5.4
2015-Mar-26 17:33N 47°34' W 122°21'2 5.7
2015-Mar-26 17:13N 47°35' W 122°22'0 0.4
2015-Mar-26 16:33N 47°35' W 122°22'2 6.2
2015-Mar-26 16:16N 47°33' W 122°21'1 1.3
2015-Mar-26 15:33N 47°33' W 122°20'0 4.5
2015-Mar-26 15:31N 47°33' W 122°20'2 2.0
2015-Mar-26 14:33N 47°34' W 122°21'0 5.7
2015-Mar-26 14:31N 47°34' W 122°21'0 0.3
2015-Mar-26 13:33N 47°34' W 122°21'0 0.0
2015-Mar-26 13:30N 47°34' W 122°21'0 0.0
2015-Mar-26 12:33N 47°34' W 122°21'0 0.0
2015-Mar-26 12:31N 47°34' W 122°21'0 0.0
2015-Mar-26 11:33N 47°34' W 122°21'0 0.1
2015-Mar-26 11:30N 47°34' W 122°21'0 0.0
2015-Mar-26 10:33N 47°34' W 122°21'0 0.0
2015-Mar-26 10:31N 47°34' W 122°21'0 0.0
2015-Mar-26 09:33N 47°34' W 122°21'0 0.1
2015-Mar-26 09:30N 47°34' W 122°21'0 0.0
2015-Mar-26 08:33N 47°34' W 122°21'0 0.0
2015-Mar-26 08:30N 47°34' W 122°21'0 0.0
2015-Mar-26 07:33N 47°34' W 122°21'0 0.1
2015-Mar-26 07:30N 47°34' W 122°21'0 0.0
2015-Mar-26 06:33N 47°34' W 122°21'0 0.1
2015-Mar-26 06:30N 47°34' W 122°21'0 0.0
2015-Mar-26 06:10N 47°34' W 122°21'0 0.6
2015-Mar-26 05:33N 47°34' W 122°21'1 1.1
2015-Mar-26 04:33N 47°35' W 122°21'0 0.6
2015-Mar-26 04:30N 47°35' W 122°21'1 0.7
2015-Mar-26 03:33N 47°36' W 122°22'0 0.3
2015-Mar-26 03:25N 47°36' W 122°22'2 2.8
2015-Mar-26 02:33N 47°33' W 122°21'0 0.7
2015-Mar-26 02:30N 47°33' W 122°21'0 0.3
2015-Mar-26 01:33N 47°33' W 122°20'0 0.0
2015-Mar-26 01:30N 47°33' W 122°20'0 0.1
2015-Mar-26 00:33N 47°33' W 122°21'0 0.1
2015-Mar-26 00:30N 47°33' W 122°21'1 1.1
2015-Mar-25 23:33N 47°34' W 122°21'0 0.1
2015-Mar-25 23:30N 47°34' W 122°21'0 0.0
2015-Mar-25 22:33N 47°34' W 122°21'0 0.0
2015-Mar-25 22:30N 47°34' W 122°21'1 0.9
2015-Mar-25 21:33N 47°33' W 122°21'0 0.4
2015-Mar-25 21:29N 47°33' W 122°21'2 2.2
2015-Mar-25 20:33N 47°35' W 122°21'0 0.0
2015-Mar-25 20:24N 47°35' W 122°21'0 0.0
2015-Mar-25 19:33N 47°35' W 122°21'0 0.0
2015-Mar-25 19:29N 47°35' W 122°21'2 2.3
2015-Mar-25 18:33N 47°33' W 122°21'0 0.0
2015-Mar-25 18:29N 47°33' W 122°21'0 0.0
2015-Mar-25 17:33N 47°33' W 122°21'0 0.0
2015-Mar-25 17:29N 47°33' W 122°21'0 0.0
2015-Mar-25 16:33N 47°33' W 122°21'0 0.0
2015-Mar-25 16:29N 47°33' W 122°21'1 1.1
2015-Mar-25 15:33N 47°34' W 122°21'0 4.4
2015-Mar-25 15:29N 47°34' W 122°21'0 0.5
2015-Mar-25 14:33N 47°34' W 122°21'0 0.3
2015-Mar-25 13:46N 47°34' W 122°21'0 0.0
2015-Mar-25 13:33N 47°34' W 122°21'0 0.0
2015-Mar-25 13:32N 47°34' W 122°21'0 0.0
2015-Mar-24 23:22N 47°34' W 122°21'0 0.0
2015-Mar-24 23:20N 47°34' W 122°21'2 2.0
2015-Mar-24 22:33N 47°36' W 122°22'0 2.0
2015-Mar-24 22:30N 47°36' W 122°22'3 2.8
2015-Mar-24 21:33N 47°33' W 122°21'0 0.2
2015-Mar-24 21:30N 47°33' W 122°21'2 2.3
2015-Mar-24 20:33N 47°35' W 122°21'0 0.1
2015-Mar-24 20:30N 47°35' W 122°21'1 1.2
2015-Mar-24 19:34N 47°34' W 122°21'0 0.0
2015-Mar-24 19:29N 47°34' W 122°21'0 0.0
2015-Mar-24 18:34N 47°34' W 122°21'0 0.0
2015-Mar-24 18:29N 47°34' W 122°21'0 0.0
2015-Mar-24 17:33N 47°34' W 122°21'0 0.0
2015-Mar-24 17:29N 47°34' W 122°21'1 0.7
2015-Mar-24 16:31N 47°35' W 122°22'0 4.1
2015-Mar-24 16:29N 47°35' W 122°22'1 0.6
2015-Mar-24 15:34N 47°35' W 122°21'0 5.1
2015-Mar-24 15:29N 47°36' W 122°22'2 2.3
2015-Mar-24 14:34N 47°34' W 122°21'1 6.7
2015-Mar-24 14:29N 47°33' W 122°20'1 1.2
2015-Mar-24 13:33N 47°34' W 122°21'0 0.0
2015-Mar-24 13:29N 47°34' W 122°21'0 0.0
2015-Mar-24 12:34N 47°34' W 122°21'0 0.0
2015-Mar-24 12:29N 47°34' W 122°21'0 0.0
2015-Mar-24 11:34N 47°34' W 122°21'0 0.0
2015-Mar-24 11:29N 47°34' W 122°21'0 0.0
2015-Mar-24 10:34N 47°34' W 122°21'0 0.1
2015-Mar-24 10:29N 47°34' W 122°21'0 0.0
2015-Mar-24 09:33N 47°34' W 122°21'0 0.0
2015-Mar-24 09:07N 47°34' W 122°21'0 0.0
2015-Mar-24 08:33N 47°34' W 122°21'0 0.0
2015-Mar-24 08:32N 47°34' W 122°21'1 0.6
2015-Mar-24 07:33N 47°34' W 122°21'0 6.0
2015-Mar-24 07:31N 47°34' W 122°21'0 0.4
2015-Mar-24 06:33N 47°34' W 122°21'0 0.1
2015-Mar-24 06:31N 47°34' W 122°21'0 0.0
2015-Mar-24 06:06N 47°34' W 122°21'0 0.0
2015-Mar-24 05:33N 47°34' W 122°21'0 0.0
2015-Mar-24 04:34N 47°34' W 122°21'0 0.0
2015-Mar-24 04:31N 47°34' W 122°21'0 0.0
2015-Mar-24 03:33N 47°34' W 122°21'0 0.1
2015-Mar-24 03:31N 47°34' W 122°21'0 0.0
2015-Mar-24 02:33N 47°34' W 122°21'0 0.0
2015-Mar-24 02:31N 47°34' W 122°21'1 1.5
2015-Mar-24 01:33N 47°35' W 122°22'0 7.2
2015-Mar-24 01:31N 47°35' W 122°22'1 1.2
2015-Mar-24 00:33N 47°34' W 122°21'0 0.0
2015-Mar-24 00:31N 47°34' W 122°21'0 0.0
2015-Mar-23 23:34N 47°34' W 122°21'0 0.0
2015-Mar-23 23:31N 47°34' W 122°21'0 0.0
2015-Mar-23 22:34N 47°34' W 122°21'0 0.0
2015-Mar-23 22:30N 47°34' W 122°21'0 0.2
2015-Mar-23 21:34N 47°34' W 122°21'0 7.9
2015-Mar-23 21:30N 47°34' W 122°21'1 0.9
2015-Mar-23 20:34N 47°33' W 122°20'0 0.8
2015-Mar-23 20:30N 47°33' W 122°20'2 2.0
2015-Mar-23 19:34N 47°35' W 122°22'0 6.5
2015-Mar-23 19:30N 47°35' W 122°22'1 0.8
2015-Mar-23 18:33N 47°35' W 122°20'0 0.0
2015-Mar-23 18:30N 47°35' W 122°20'1 0.7
2015-Mar-23 17:33N 47°34' W 122°21'0 0.1
2015-Mar-23 17:30N 47°34' W 122°21'1 1.1
2015-Mar-23 16:34N 47°35' W 122°21'0 0.9
2015-Mar-23 16:30N 47°35' W 122°22'0 0.3
2015-Mar-23 15:34N 47°35' W 122°22'0 0.1
2015-Mar-23 15:30N 47°35' W 122°22'1 0.0
2015-Mar-21 19:33N 47°34' W 122°21'0 7.0
2015-Mar-21 19:32N 47°34' W 122°21'2 1.6
2015-Mar-21 18:33N 47°36' W 122°22'0 0.4
2015-Mar-21 18:31N 47°36' W 122°22'3 3.2
2015-Mar-21 17:33N 47°33' W 122°20'0 0.3
2015-Mar-21 17:26N 47°33' W 122°20'0 0.1
2015-Mar-21 16:33N 47°33' W 122°20'0 0.0
2015-Mar-21 16:31N 47°33' W 122°20'1 1.2
2015-Mar-21 15:33N 47°34' W 122°21'0 5.6
2015-Mar-21 15:31N 47°34' W 122°21'0 0.0
2015-Mar-21 14:33N 47°34' W 122°21'0 4.2
2015-Mar-21 14:30N 47°34' W 122°21'0 0.3
2015-Mar-21 13:33N 47°34' W 122°21'0 0.6
2015-Mar-21 13:30N 47°34' W 122°21'0 0.0
2015-Mar-21 00:12N 47°34' W 122°21'0 0.4
2015-Mar-21 00:11N 47°34' W 122°21'1 1.1
2015-Mar-20 23:33N 47°35' W 122°22'0 7.0
2015-Mar-20 23:31N 47°35' W 122°22'2 2.4
2015-Mar-20 22:33N 47°33' W 122°20'0 1.3
2015-Mar-20 22:31N 47°33' W 122°20'3 3.6
2015-Mar-20 21:33N 47°36' W 122°22'0 0.7
2015-Mar-20 21:30N 47°36' W 122°22'2 1.8
2015-Mar-20 20:33N 47°37' W 122°24'0 7.4
2015-Mar-20 20:30N 47°37' W 122°24'3 2.7
2015-Mar-20 19:33N 47°40' W 122°24'0 0.0
2015-Mar-20 19:29N 47°40' W 122°24'0 0.3
2015-Mar-20 18:33N 47°40' W 122°23'0 0.7
2015-Mar-20 18:29N 47°40' W 122°23'0 0.3
2015-Mar-20 17:33N 47°40' W 122°24'0 4.4
2015-Mar-20 17:29N 47°40' W 122°24'3 2.7
2015-Mar-20 16:34N 47°38' W 122°23'0 3.6
2015-Mar-20 16:33N 47°38' W 122°23'4 0.2
2015-Mar-19 22:32N 47°34' W 122°21'0 0.0
2015-Mar-19 22:32N 47°34' W 122°21'2 2.3
2015-Mar-19 21:34N 47°32' W 122°20'0 0.4
2015-Mar-19 21:33N 47°32' W 122°20'1 1.2
2015-Mar-19 20:33N 47°33' W 122°20'0 0.7
2015-Mar-19 20:32N 47°33' W 122°20'0 0.0
2015-Mar-19 19:34N 47°33' W 122°20'0 0.0
2015-Mar-19 19:33N 47°33' W 122°20'1 0.1
2015-Mar-19 02:48N 47°34' W 122°21'0 0.0
2015-Mar-19 02:33N 47°34' W 122°21'0 0.0
2015-Mar-19 01:58N 47°34' W 122°21'2 4.0
2015-Mar-19 01:33N 47°36' W 122°22'0 0.1
2015-Mar-19 01:29N 47°36' W 122°22'3 2.9
2015-Mar-19 00:33N 47°33' W 122°20'0 0.1
2015-Mar-19 00:28N 47°33' W 122°20'2 1.8
2015-Mar-18 23:33N 47°35' W 122°22'0 0.0
2015-Mar-18 23:33N 47°35' W 122°22'1 0.6
2015-Mar-18 22:33N 47°34' W 122°21'0 5.4
2015-Mar-18 22:28N 47°34' W 122°21'0 0.0
2015-Mar-18 21:33N 47°34' W 122°21'0 6.6
2015-Mar-18 21:33N 47°34' W 122°21'1 0.5
2015-Mar-18 20:33N 47°34' W 122°21'0 0.0
2015-Mar-18 20:28N 47°34' W 122°21'0 0.0
2015-Mar-18 19:33N 47°34' W 122°21'0 0.0
2015-Mar-18 19:22N 47°34' W 122°21'0 0.0
2015-Mar-18 18:33N 47°34' W 122°21'0 0.0
2015-Mar-18 18:32N 47°34' W 122°21'0 0.0
2015-Mar-18 17:33N 47°34' W 122°21'0 0.0
2015-Mar-18 17:32N 47°34' W 122°21'1 1.5
2015-Mar-18 16:33N 47°33' W 122°20'0 0.1
2015-Mar-18 16:31N 47°33' W 122°20'0 0.3
2015-Mar-18 15:33N 47°33' W 122°20'0 8.0
2015-Mar-18 15:32N 47°33' W 122°21'1 0.8
2015-Mar-18 14:33N 47°34' W 122°21'0 5.4
2015-Mar-18 14:31N 47°34' W 122°21'0 0.0
2015-Mar-17 20:09N 47°34' W 122°21'0 3.9
2015-Mar-17 20:06N 47°34' W 122°21'1 2.4
2015-Mar-17 19:33N 47°33' W 122°20'0 1.0
2015-Mar-17 19:31N 47°33' W 122°20'  
Track history (hours):
 
Tides and Currents Weather Stations Pressure Air Temp Water Temp Dewpoint Dewpoint Depression Visibility Wind Speed Wind Dir Waves Ship Positions

Westrac

Owner: WESTERN TOWBOAT CO, SEATTLE, WA. More information available from US FCC via Universal Licensing System and Coast Guard Vessel Documentation Center.

Last reported at 2015-Mar-26 22:06 UTC. Time now 2015-Mar-26 22:36 UTC.
Position N 47°34' W 122°21'.

Length 23 m; draft 5 m.

Type: Tug. MMSI: 366993010.

Date/timePositionNaut miles runAvg speedWind from/ knotsBaromVisibWave heightAir tempDewpointWater temp
2015-Mar-26 22:06N 47°34' W 122°21'0 2.5
2015-Mar-26 22:04N 47°34' W 122°21'1 1.6
2015-Mar-26 21:33N 47°33' W 122°21'0 0.0
2015-Mar-26 21:29N 47°33' W 122°21'1 0.6
2015-Mar-26 20:33N 47°34' W 122°21'0 5.2
2015-Mar-26 20:29N 47°34' W 122°21'1 0.6
2015-Mar-26 19:33N 47°35' W 122°21'1 4.6
2015-Mar-26 19:22N 47°34' W 122°21'1 0.7
2015-Mar-26 18:33N 47°33' W 122°21'0 0.4
2015-Mar-26 17:39N 47°33' W 122°20'1 5.4
2015-Mar-26 17:33N 47°34' W 122°21'2 5.7
2015-Mar-26 17:13N 47°35' W 122°22'0 0.4
2015-Mar-26 16:33N 47°35' W 122°22'2 6.2
2015-Mar-26 16:16N 47°33' W 122°21'1 1.3
2015-Mar-26 15:33N 47°33' W 122°20'0 4.5
2015-Mar-26 15:31N 47°33' W 122°20'2 2.0
2015-Mar-26 14:33N 47°34' W 122°21'0 5.7
2015-Mar-26 14:31N 47°34' W 122°21'0 0.3
2015-Mar-26 13:33N 47°34' W 122°21'0 0.0
2015-Mar-26 13:30N 47°34' W 122°21'0 0.0
2015-Mar-26 12:33N 47°34' W 122°21'0 0.0
2015-Mar-26 12:31N 47°34' W 122°21'0 0.0
2015-Mar-26 11:33N 47°34' W 122°21'0 0.1
2015-Mar-26 11:30N 47°34' W 122°21'0 0.0
2015-Mar-26 10:33N 47°34' W 122°21'0 0.0
2015-Mar-26 10:31N 47°34' W 122°21'0 0.0
2015-Mar-26 09:33N 47°34' W 122°21'0 0.1
2015-Mar-26 09:30N 47°34' W 122°21'0 0.0
2015-Mar-26 08:33N 47°34' W 122°21'0 0.0
2015-Mar-26 08:30N 47°34' W 122°21'0 0.0
2015-Mar-26 07:33N 47°34' W 122°21'0 0.1
2015-Mar-26 07:30N 47°34' W 122°21'0 0.0
2015-Mar-26 06:33N 47°34' W 122°21'0 0.1
2015-Mar-26 06:30N 47°34' W 122°21'0 0.0
2015-Mar-26 06:10N 47°34' W 122°21'0 0.6
2015-Mar-26 05:33N 47°34' W 122°21'1 1.1
2015-Mar-26 04:33N 47°35' W 122°21'0 0.6
2015-Mar-26 04:30N 47°35' W 122°21'1 0.7
2015-Mar-26 03:33N 47°36' W 122°22'0 0.3
2015-Mar-26 03:25N 47°36' W 122°22'2 2.8
2015-Mar-26 02:33N 47°33' W 122°21'0 0.7
2015-Mar-26 02:30N 47°33' W 122°21'0 0.3
2015-Mar-26 01:33N 47°33' W 122°20'0 0.0
2015-Mar-26 01:30N 47°33' W 122°20'0 0.1
2015-Mar-26 00:33N 47°33' W 122°21'0 0.1
2015-Mar-26 00:30N 47°33' W 122°21'1 1.1
2015-Mar-25 23:33N 47°34' W 122°21'0 0.1
2015-Mar-25 23:30N 47°34' W 122°21'0 0.0
2015-Mar-25 22:33N 47°34' W 122°21'0 0.0
2015-Mar-25 22:30N 47°34' W 122°21'1 0.9
2015-Mar-25 21:33N 47°33' W 122°21'0 0.4
2015-Mar-25 21:29N 47°33' W 122°21'2 2.2
2015-Mar-25 20:33N 47°35' W 122°21'0 0.0
2015-Mar-25 20:24N 47°35' W 122°21'0 0.0
2015-Mar-25 19:33N 47°35' W 122°21'0 0.0
2015-Mar-25 19:29N 47°35' W 122°21'2 2.3
2015-Mar-25 18:33N 47°33' W 122°21'0 0.0
2015-Mar-25 18:29N 47°33' W 122°21'0 0.0
2015-Mar-25 17:33N 47°33' W 122°21'0 0.0
2015-Mar-25 17:29N 47°33' W 122°21'0 0.0
2015-Mar-25 16:33N 47°33' W 122°21'0 0.0
2015-Mar-25 16:29N 47°33' W 122°21'1 1.1
2015-Mar-25 15:33N 47°34' W 122°21'0 4.4
2015-Mar-25 15:29N 47°34' W 122°21'0 0.5
2015-Mar-25 14:33N 47°34' W 122°21'0 0.3
2015-Mar-25 13:46N 47°34' W 122°21'0 0.0
2015-Mar-25 13:33N 47°34' W 122°21'0 0.0
2015-Mar-25 13:32N 47°34' W 122°21'0 0.0
2015-Mar-24 23:22N 47°34' W 122°21'0 0.0
2015-Mar-24 23:20N 47°34' W 122°21'2 2.0
2015-Mar-24 22:33N 47°36' W 122°22'0 2.0
2015-Mar-24 22:30N 47°36' W 122°22'3 2.8
2015-Mar-24 21:33N 47°33' W 122°21'0 0.2
2015-Mar-24 21:30N 47°33' W 122°21'2 2.3
2015-Mar-24 20:33N 47°35' W 122°21'0 0.1
2015-Mar-24 20:30N 47°35' W 122°21'1 1.2
2015-Mar-24 19:34N 47°34' W 122°21'0 0.0
2015-Mar-24 19:29N 47°34' W 122°21'0 0.0
2015-Mar-24 18:34N 47°34' W 122°21'0 0.0
2015-Mar-24 18:29N 47°34' W 122°21'0 0.0
2015-Mar-24 17:33N 47°34' W 122°21'0 0.0
2015-Mar-24 17:29N 47°34' W 122°21'1 0.7
2015-Mar-24 16:31N 47°35' W 122°22'0 4.1
2015-Mar-24 16:29N 47°35' W 122°22'1 0.6
2015-Mar-24 15:34N 47°35' W 122°21'0 5.1
2015-Mar-24 15:29N 47°36' W 122°22'2 2.3
2015-Mar-24 14:34N 47°34' W 122°21'1 6.7
2015-Mar-24 14:29N 47°33' W 122°20'1 1.2
2015-Mar-24 13:33N 47°34' W 122°21'0 0.0
2015-Mar-24 13:29N 47°34' W 122°21'0 0.0
2015-Mar-24 12:34N 47°34' W 122°21'0 0.0
2015-Mar-24 12:29N 47°34' W 122°21'0 0.0
2015-Mar-24 11:34N 47°34' W 122°21'0 0.0
2015-Mar-24 11:29N 47°34' W 122°21'0 0.0
2015-Mar-24 10:34N 47°34' W 122°21'0 0.1
2015-Mar-24 10:29N 47°34' W 122°21'0 0.0
2015-Mar-24 09:33N 47°34' W 122°21'0 0.0
2015-Mar-24 09:07N 47°34' W 122°21'0 0.0
2015-Mar-24 08:33N 47°34' W 122°21'0 0.0
2015-Mar-24 08:32N 47°34' W 122°21'1 0.6
2015-Mar-24 07:33N 47°34' W 122°21'0 6.0
2015-Mar-24 07:31N 47°34' W 122°21'0 0.4
2015-Mar-24 06:33N 47°34' W 122°21'0 0.1
2015-Mar-24 06:31N 47°34' W 122°21'0 0.0
2015-Mar-24 06:06N 47°34' W 122°21'0 0.0
2015-Mar-24 05:33N 47°34' W 122°21'0 0.0
2015-Mar-24 04:34N 47°34' W 122°21'0 0.0
2015-Mar-24 04:31N 47°34' W 122°21'0 0.0
2015-Mar-24 03:33N 47°34' W 122°21'0 0.1
2015-Mar-24 03:31N 47°34' W 122°21'0 0.0
2015-Mar-24 02:33N 47°34' W 122°21'0 0.0
2015-Mar-24 02:31N 47°34' W 122°21'1 1.5
2015-Mar-24 01:33N 47°35' W 122°22'0 7.2
2015-Mar-24 01:31N 47°35' W 122°22'1 1.2
2015-Mar-24 00:33N 47°34' W 122°21'0 0.0
2015-Mar-24 00:31N 47°34' W 122°21'0 0.0
2015-Mar-23 23:34N 47°34' W 122°21'0 0.0
2015-Mar-23 23:31N 47°34' W 122°21'0 0.0
2015-Mar-23 22:34N 47°34' W 122°21'0 0.0
2015-Mar-23 22:30N 47°34' W 122°21'0 0.2
2015-Mar-23 21:34N 47°34' W 122°21'0 7.9
2015-Mar-23 21:30N 47°34' W 122°21'1 0.9
2015-Mar-23 20:34N 47°33' W 122°20'0 0.8
2015-Mar-23 20:30N 47°33' W 122°20'2 2.0
2015-Mar-23 19:34N 47°35' W 122°22'0 6.5
2015-Mar-23 19:30N 47°35' W 122°22'1 0.8
2015-Mar-23 18:33N 47°35' W 122°20'0 0.0
2015-Mar-23 18:30N 47°35' W 122°20'1 0.7
2015-Mar-23 17:33N 47°34' W 122°21'0 0.1
2015-Mar-23 17:30N 47°34' W 122°21'1 1.1
2015-Mar-23 16:34N 47°35' W 122°21'0 0.9
2015-Mar-23 16:30N 47°35' W 122°22'0 0.3
2015-Mar-23 15:34N 47°35' W 122°22'0 0.1
2015-Mar-23 15:30N 47°35' W 122°22'1 0.0
2015-Mar-21 19:33N 47°34' W 122°21'0 7.0
2015-Mar-21 19:32N 47°34' W 122°21'2 1.6
2015-Mar-21 18:33N 47°36' W 122°22'0 0.4
2015-Mar-21 18:31N 47°36' W 122°22'3 3.2
2015-Mar-21 17:33N 47°33' W 122°20'0 0.3
2015-Mar-21 17:26N 47°33' W 122°20'0 0.1
2015-Mar-21 16:33N 47°33' W 122°20'0 0.0
2015-Mar-21 16:31N 47°33' W 122°20'1 1.2
2015-Mar-21 15:33N 47°34' W 122°21'0 5.6
2015-Mar-21 15:31N 47°34' W 122°21'0 0.0
2015-Mar-21 14:33N 47°34' W 122°21'0 4.2
2015-Mar-21 14:30N 47°34' W 122°21'0 0.3
2015-Mar-21 13:33N 47°34' W 122°21'0 0.6
2015-Mar-21 13:30N 47°34' W 122°21'0 0.0
2015-Mar-21 00:12N 47°34' W 122°21'0 0.4
2015-Mar-21 00:11N 47°34' W 122°21'1 1.1
2015-Mar-20 23:33N 47°35' W 122°22'0 7.0
2015-Mar-20 23:31N 47°35' W 122°22'2 2.4
2015-Mar-20 22:33N 47°33' W 122°20'0 1.3
2015-Mar-20 22:31N 47°33' W 122°20'3 3.6
2015-Mar-20 21:33N 47°36' W 122°22'0 0.7
2015-Mar-20 21:30N 47°36' W 122°22'2 1.8
2015-Mar-20 20:33N 47°37' W 122°24'0 7.4
2015-Mar-20 20:30N 47°37' W 122°24'3 2.7
2015-Mar-20 19:33N 47°40' W 122°24'0 0.0
2015-Mar-20 19:29N 47°40' W 122°24'0 0.3
2015-Mar-20 18:33N 47°40' W 122°23'0 0.7
2015-Mar-20 18:29N 47°40' W 122°23'0 0.3
2015-Mar-20 17:33N 47°40' W 122°24'0 4.4
2015-Mar-20 17:29N 47°40' W 122°24'3 2.7
2015-Mar-20 16:34N 47°38' W 122°23'0 3.6
2015-Mar-20 16:33N 47°38' W 122°23'4 0.2
2015-Mar-19 22:32N 47°34' W 122°21'0 0.0
2015-Mar-19 22:32N 47°34' W 122°21'2 2.3
2015-Mar-19 21:34N 47°32' W 122°20'0 0.4
2015-Mar-19 21:33N 47°32' W 122°20'1 1.2
2015-Mar-19 20:33N 47°33' W 122°20'0 0.7
2015-Mar-19 20:32N 47°33' W 122°20'0 0.0
2015-Mar-19 19:34N 47°33' W 122°20'0 0.0
2015-Mar-19 19:33N 47°33' W 122°20'1 0.1
2015-Mar-19 02:48N 47°34' W 122°21'0 0.0
2015-Mar-19 02:33N 47°34' W 122°21'0 0.0
2015-Mar-19 01:58N 47°34' W 122°21'2 4.0
2015-Mar-19 01:33N 47°36' W 122°22'0 0.1
2015-Mar-19 01:29N 47°36' W 122°22'3 2.9
2015-Mar-19 00:33N 47°33' W 122°20'0 0.1
2015-Mar-19 00:28N 47°33' W 122°20'2 1.8
2015-Mar-18 23:33N 47°35' W 122°22'0 0.0
2015-Mar-18 23:33N 47°35' W 122°22'1 0.6
2015-Mar-18 22:33N 47°34' W 122°21'0 5.4
2015-Mar-18 22:28N 47°34' W 122°21'0 0.0
2015-Mar-18 21:33N 47°34' W 122°21'0 6.6
2015-Mar-18 21:33N 47°34' W 122°21'1 0.5
2015-Mar-18 20:33N 47°34' W 122°21'0 0.0
2015-Mar-18 20:28N 47°34' W 122°21'0 0.0
2015-Mar-18 19:33N 47°34' W 122°21'0 0.0
2015-Mar-18 19:22N 47°34' W 122°21'0 0.0
2015-Mar-18 18:33N 47°34' W 122°21'0 0.0
2015-Mar-18 18:32N 47°34' W 122°21'0 0.0
2015-Mar-18 17:33N 47°34' W 122°21'0 0.0
2015-Mar-18 17:32N 47°34' W 122°21'1 1.5
2015-Mar-18 16:33N 47°33' W 122°20'0 0.1
2015-Mar-18 16:31N 47°33' W 122°20'0 0.3
2015-Mar-18 15:33N 47°33' W 122°20'0 8.0
2015-Mar-18 15:32N 47°33' W 122°21'1 0.8
2015-Mar-18 14:33N 47°34' W 122°21'0 5.4
2015-Mar-18 14:31N 47°34' W 122°21'0 0.0
2015-Mar-17 20:09N 47°34' W 122°21'0 3.9
2015-Mar-17 20:06N 47°34' W 122°21'1 2.4
2015-Mar-17 19:33N 47°33' W 122°20'0 1.0
2015-Mar-17 19:31N 47°33' W 122°20'  

Dump ship's entire track history